Time;durP1;ratioP1;P1;durP2;ratioP2;P2;SDS_P1;SDS_P2;PMS_P1;PMS_P2;Temp;Humidity;BMP_temperature;BMP_pressure;BME280_temperature;BME280_humidity;BME280_pressure;Samples;Min_cycle;Max_cycle;Signal;HPM_P1;HPM_P2
2023/09/05 00:01:45;;;;;;;1.63;1.52;;;14.70;83.30;;;;;;5109123;28;20075;-63
2023/09/05 00:04:13;;;;;;;2.15;1.60;;;15.00;88.90;;;;;;5092075;28;20062;-63
2023/09/05 00:06:42;;;;;;;1.70;1.60;;;14.70;84.80;;;;;;5093139;28;20059;-64
2023/09/05 00:09:08;;;;;;;2.38;1.88;;;14.70;82.90;;;;;;5093492;28;20083;-64
2023/09/05 00:11:34;;;;;;;1.58;1.48;;;14.60;87.70;;;;;;5108889;28;20047;-64
2023/09/05 00:14:03;;;;;;;1.40;1.30;;;14.60;85.00;;;;;;5091968;28;20518;-63
2023/09/05 00:16:29;;;;;;;1.58;1.48;;;14.60;89.50;;;;;;5093177;28;20119;-63
2023/09/05 00:18:55;;;;;;;2.70;1.60;;;14.60;90.80;;;;;;5093382;28;20043;-64
2023/09/05 00:21:20;;;;;;;1.48;1.38;;;14.50;91.10;;;;;;5093118;28;20051;-63
2023/09/05 00:23:46;;;;;;;1.60;1.50;;;14.50;90.30;;;;;;5093109;28;20085;-64
2023/09/05 00:26:12;;;;;;;1.30;1.20;;;14.50;90.90;;;;;;5092924;28;20039;-64
2023/09/05 00:28:38;;;;;;;1.52;1.42;;;14.40;91.40;;;;;;5093296;28;20040;-63
2023/09/05 00:31:03;;;;;;;1.30;1.20;;;14.70;90.90;;;;;;5093229;28;20067;-63
2023/09/05 00:33:29;;;;;;;2.30;1.60;;;14.40;90.60;;;;;;5093200;28;20040;-63
2023/09/05 00:35:56;;;;;;;1.70;1.60;;;14.40;92.10;;;;;;5092917;28;20136;-63
2023/09/05 00:38:24;;;;;;;2.03;1.73;;;14.40;91.60;;;;;;5093174;28;20040;-64
2023/09/05 00:40:50;;;;;;;1.70;1.60;;;14.40;92.20;;;;;;5092887;28;20039;-66
2023/09/05 00:43:20;;;;;;;1.83;1.73;;;14.40;94.70;;;;;;5108698;28;20054;-66
2023/09/05 00:45:49;;;;;;;1.90;1.77;;;14.30;94.00;;;;;;5091893;28;20044;-66
2023/09/05 00:48:16;;;;;;;1.48;1.38;;;14.30;93.90;;;;;;5095106;28;20040;-66
2023/09/05 00:50:42;;;;;;;1.60;1.50;;;14.30;94.60;;;;;;5095741;28;20051;-66
2023/09/05 00:53:08;;;;;;;1.75;1.63;;;14.30;94.10;;;;;;5097064;28;20502;-66
2023/09/05 00:55:34;;;;;;;1.50;1.40;;;14.30;94.70;;;;;;5097264;28;20125;-66
2023/09/05 00:58:03;;;;;;;1.40;1.30;;;14.20;95.90;;;;;;5097196;28;20183;-68
2023/09/05 01:00:28;;;;;;;1.77;1.67;;;14.20;95.10;;;;;;5095693;28;20089;-67
2023/09/05 01:02:54;;;;;;;1.77;1.67;;;14.20;95.90;;;;;;5096982;28;20067;-66
2023/09/05 01:05:27;;;;;;;1.83;1.73;;;14.20;95.80;;;;;;5096603;28;20052;-66
2023/09/05 01:08:24;;;;;;;1.77;1.67;;;14.20;95.90;;;;;;5096625;28;20110;-66
2023/09/05 01:10:59;;;;;;;2.15;1.92;;;14.20;96.00;;;;;;5095546;28;20380;-66
2023/09/05 01:13:26;;;;;;;1.77;1.67;;;14.20;96.00;;;;;;5096915;28;20392;-66
2023/09/05 01:15:53;;;;;;;1.50;1.40;;;14.20;95.50;;;;;;5096811;28;20036;-66
2023/09/05 01:18:20;;;;;;;1.65;1.55;;;14.20;95.90;;;;;;5096839;28;20452;-66
2023/09/05 01:21:16;;;;;;;1.60;1.50;;;14.10;96.80;;;;;;5097027;28;20042;-66
2023/09/05 01:23:58;;;;;;;1.65;1.55;;;14.10;96.60;;;;;;5095485;28;20176;-66
2023/09/05 01:26:24;;;;;;;3.40;1.67;;;14.10;96.70;;;;;;5095048;28;20044;-68
2023/09/05 01:28:52;;;;;;;1.70;1.60;;;14.10;96.70;;;;;;5096564;28;20492;-66
2023/09/05 01:31:17;;;;;;;1.80;1.70;;;14.10;95.70;;;;;;5095210;28;20051;-66
2023/09/05 01:33:43;;;;;;;2.08;1.88;;;14.10;97.60;;;;;;5095143;28;20028;-66
2023/09/05 01:36:09;;;;;;;1.77;1.67;;;14.00;98.20;;;;;;5094841;28;20115;-66
2023/09/05 01:38:34;;;;;;;1.70;1.60;;;14.80;99.30;;;;;;5096344;28;20122;-66
2023/09/05 01:41:00;;;;;;;2.10;1.90;;;14.00;99.90;;;;;;5096040;28;20425;-66
2023/09/05 01:43:26;;;;;;;1.60;1.50;;;14.00;98.90;;;;;;5078139;28;20396;-66
2023/09/05 01:45:51;;;;;;;1.73;1.60;;;14.00;99.30;;;;;;5111668;28;20040;-66
2023/09/05 01:48:17;;;;;;;3.05;1.80;;;13.90;99.90;;;;;;5077633;28;20055;-66
2023/09/05 01:50:42;;;;;;;1.88;1.63;;;14.50;98.30;;;;;;5096119;28;20040;-63
2023/09/05 01:53:08;;;;;;;1.80;1.70;;;13.90;99.20;;;;;;5096115;28;20039;-63
2023/09/05 01:55:34;;;;;;;1.60;1.50;;;13.90;99.40;;;;;;5096073;28;20044;-63
2023/09/05 01:57:59;;;;;;;1.75;1.65;;;14.10;99.80;;;;;;5096055;28;20431;-63
2023/09/05 02:00:25;;;;;;;1.90;1.80;;;13.90;99.90;;;;;;5111451;28;20125;-63
2023/09/05 02:02:50;;;;;;;1.77;1.67;;;14.30;99.90;;;;;;5095513;28;20074;-63
2023/09/05 02:05:16;;;;;;;1.80;1.70;;;13.90;99.90;;;;;;5095597;28;20044;-63
2023/09/05 02:07:41;;;;;;;1.58;1.48;;;13.90;99.90;;;;;;5095893;28;20040;-63
2023/09/05 02:10:08;;;;;;;2.22;2.03;;;13.90;99.90;;;;;;5095848;28;20369;-64
2023/09/05 02:12:35;;;;;;;2.00;1.90;;;13.80;99.90;;;;;;5095809;28;20032;-63
2023/09/05 02:15:02;;;;;;;2.25;1.88;;;13.80;99.90;;;;;;5096016;28;20044;-63
2023/09/05 02:17:31;;;;;;;2.30;2.10;;;13.80;99.90;;;;;;5095713;28;20503;-63
2023/09/05 02:19:59;;;;;;;1.92;1.83;;;14.00;99.90;;;;;;5095767;28;20085;-64
2023/09/05 02:22:25;;;;;;;2.13;2.03;;;13.80;99.90;;;;;;5095591;28;20038;-65
2023/09/05 02:24:50;;;;;;;2.50;2.08;;;13.80;99.90;;;;;;5095263;28;20047;-64
2023/09/05 02:27:16;;;;;;;1.60;1.50;;;13.80;99.90;;;;;;5095452;28;20368;-65
2023/09/05 02:29:42;;;;;;;1.80;1.70;;;13.80;99.90;;;;;;5110761;28;20040;-65
2023/09/05 02:32:07;;;;;;;2.22;2.03;;;13.80;99.90;;;;;;5095380;28;20036;-64
2023/09/05 02:34:33;;;;;;;2.33;2.13;;;13.80;99.90;;;;;;5111043;28;20529;-65
2023/09/05 02:36:59;;;;;;;2.10;1.90;;;14.50;99.90;;;;;;5094946;28;20072;-65
2023/09/05 02:39:25;;;;;;;2.20;2.00;;;13.80;99.90;;;;;;5094924;28;20040;-65
2023/09/05 02:41:50;;;;;;;2.28;1.85;;;13.80;99.90;;;;;;5095187;28;20058;-64
2023/09/05 02:44:16;;;;;;;2.05;1.92;;;13.80;99.90;;;;;;5094751;28;20076;-64
2023/09/05 02:46:42;;;;;;;1.98;1.88;;;13.80;99.90;;;;;;5095151;28;20036;-64
2023/09/05 02:49:07;;;;;;;2.17;2.00;;;13.80;99.90;;;;;;5094927;28;20100;-64
2023/09/05 02:51:33;;;;;;;1.90;1.80;;;14.00;99.90;;;;;;5094930;28;20032;-65
2023/09/05 02:54:00;;;;;;;1.95;1.85;;;13.80;99.90;;;;;;5094923;28;20531;-67
2023/09/05 02:56:25;;;;;;;2.33;2.13;;;13.80;99.90;;;;;;5093249;28;20044;-64
2023/09/05 02:58:51;;;;;;;1.75;1.65;;;14.10;99.90;;;;;;5094844;28;20047;-64
2023/09/05 03:01:17;;;;;;;2.38;2.17;;;13.80;99.90;;;;;;5094912;28;20036;-63
2023/09/05 03:03:43;;;;;;;1.77;1.67;;;13.80;99.90;;;;;;5093298;28;20126;-64
2023/09/05 03:06:16;;;;;;;1.90;1.80;;;13.70;99.90;;;;;;5094394;28;20051;-63
2023/09/05 03:08:44;;;;;;;2.30;2.10;;;13.70;99.90;;;;;;5094381;28;20411;-63
2023/09/05 03:11:10;;;;;;;2.60;2.40;;;13.70;99.90;;;;;;5093836;28;20040;-63
2023/09/05 03:13:36;;;;;;;2.63;2.20;;;13.60;99.90;;;;;;5094550;28;20044;-63
2023/09/05 03:16:02;;;;;;;2.10;2.00;;;13.60;99.90;;;;;;5094317;28;20426;-63
2023/09/05 03:18:27;;;;;;;2.30;2.10;;;13.60;99.90;;;;;;5094104;28;20040;-63
2023/09/05 03:20:53;;;;;;;2.17;1.98;;;13.60;99.90;;;;;;5094382;28;20086;-64
2023/09/05 03:23:19;;;;;;;1.60;1.50;;;13.80;99.90;;;;;;5094310;28;20480;-63
2023/09/05 03:25:44;;;;;;;2.10;1.92;;;13.60;99.90;;;;;;5094224;28;20482;-63
2023/09/05 03:28:14;;;;;;;2.58;2.35;;;13.50;99.90;;;;;;5094251;28;20041;-63
2023/09/05 03:30:41;;;;;;;2.50;2.30;;;13.50;99.90;;;;;;5092864;28;20040;-64
2023/09/05 03:33:06;;;;;;;2.20;2.00;;;13.50;99.90;;;;;;5094139;28;20123;-64
2023/09/05 03:35:33;;;;;;;2.35;2.15;;;13.50;99.90;;;;;;5093935;28;20123;-64
2023/09/05 03:37:58;;;;;;;3.42;1.88;;;13.50;99.90;;;;;;5093779;28;20040;-64
2023/09/05 03:40:24;;;;;;;3.15;2.10;;;13.50;99.90;;;;;;5094046;28;20120;-67
2023/09/05 03:42:50;;;;;;;2.20;2.10;;;13.40;99.90;;;;;;5109722;28;20040;-64
2023/09/05 03:45:17;;;;;;;1.98;1.88;;;13.40;99.90;;;;;;5093894;28;20039;-64
2023/09/05 03:47:43;;;;;;;2.20;2.00;;;13.40;99.90;;;;;;5093568;28;20044;-64
2023/09/05 03:50:09;;;;;;;2.47;2.08;;;13.30;99.90;;;;;;5093525;28;20036;-64
2023/09/05 03:52:34;;;;;;;2.53;2.00;;;13.30;99.90;;;;;;5093589;28;20032;-64
2023/09/05 03:55:01;;;;;;;2.22;2.03;;;13.40;99.90;;;;;;5094001;28;20133;-63
2023/09/05 03:57:26;;;;;;;2.50;2.30;;;13.30;99.90;;;;;;5093818;28;20105;-63
2023/09/05 03:59:52;;;;;;;2.40;1.98;;;13.40;99.90;;;;;;5093829;28;20067;-63
2023/09/05 04:02:18;;;;;;;2.22;2.03;;;13.40;99.90;;;;;;5109097;28;20051;-63
2023/09/05 04:04:43;;;;;;;2.90;2.10;;;13.40;99.90;;;;;;5108852;28;20044;-63
2023/09/05 04:07:09;;;;;;;2.50;2.30;;;14.00;99.90;;;;;;5093581;28;20071;-63
2023/09/05 04:09:35;;;;;;;2.00;1.90;;;13.40;99.90;;;;;;5093558;28;20047;-65
2023/09/05 04:12:01;;;;;;;2.38;2.17;;;13.40;99.90;;;;;;5108968;28;20562;-65
2023/09/05 04:14:26;;;;;;;2.58;2.38;;;13.40;99.90;;;;;;5091940;28;20047;-66
2023/09/05 04:16:52;;;;;;;2.53;2.33;;;13.40;99.90;;;;;;5093154;28;20085;-65
2023/09/05 04:19:17;;;;;;;2.38;2.17;;;13.40;99.90;;;;;;5075108;28;20080;-67
2023/09/05 04:21:43;;;;;;;2.40;2.20;;;13.40;99.90;;;;;;5092678;28;20488;-68
2023/09/05 04:24:09;;;;;;;1.70;1.60;;;13.40;99.90;;;;;;5108733;28;20055;-66
2023/09/05 04:26:34;;;;;;;1.92;1.83;;;13.40;99.90;;;;;;5093331;28;20032;-66
2023/09/05 04:29:00;;;;;;;2.28;2.08;;;13.30;99.90;;;;;;5093042;28;20059;-66
2023/09/05 04:31:26;;;;;;;2.47;2.28;;;13.40;99.90;;;;;;5093200;28;20032;-66
2023/09/05 04:33:54;;;;;;;1.98;1.88;;;13.40;99.90;;;;;;5093349;28;20047;-66
2023/09/05 04:36:19;;;;;;;2.25;2.15;;;13.40;99.90;;;;;;5075147;28;20047;-66
2023/09/05 04:38:45;;;;;;;3.38;2.38;;;13.40;99.90;;;;;;5093247;28;20035;-66
2023/09/05 04:41:11;;;;;;;2.47;2.28;;;13.40;99.90;;;;;;5093185;28;20119;-62
2023/09/05 04:43:37;;;;;;;2.58;2.38;;;13.40;99.90;;;;;;5093080;28;20040;-63
2023/09/05 04:46:05;;;;;;;2.22;2.03;;;13.30;99.90;;;;;;5091550;28;20101;-63
2023/09/05 04:48:31;;;;;;;2.53;2.33;;;13.30;99.90;;;;;;5091551;28;20090;-62
2023/09/05 04:51:01;;;;;;;2.70;2.50;;;13.30;99.90;;;;;;5093094;28;20438;-62
2023/09/05 04:53:27;;;;;;;2.83;2.63;;;13.30;99.90;;;;;;5092802;28;20079;-63
2023/09/05 04:55:56;;;;;;;3.05;2.75;;;13.30;99.90;;;;;;5093142;28;20040;-63
2023/09/05 04:58:22;;;;;;;3.50;3.30;;;13.40;99.90;;;;;;5092864;28;20054;-63
2023/09/05 05:00:49;;;;;;;3.13;2.92;;;13.40;99.90;;;;;;5093006;28;20404;-63
2023/09/05 05:03:15;;;;;;;3.22;2.92;;;14.00;99.90;;;;;;5092999;28;20472;-63
2023/09/05 05:05:40;;;;;;;2.05;1.95;;;13.40;99.90;;;;;;5092480;28;20060;-62
2023/09/05 05:08:06;;;;;;;2.15;2.05;;;13.40;99.90;;;;;;5092466;28;20048;-63
2023/09/05 05:10:33;;;;;;;3.25;2.33;;;13.40;99.90;;;;;;5092769;28;20098;-62
2023/09/05 05:13:00;;;;;;;2.53;2.33;;;13.40;99.90;;;;;;5092915;28;20404;-62
2023/09/05 05:15:25;;;;;;;2.38;2.17;;;13.50;99.90;;;;;;5091300;28;20040;-62
2023/09/05 05:17:51;;;;;;;2.53;2.33;;;13.50;99.90;;;;;;5091621;28;20032;-61
2023/09/05 05:20:18;;;;;;;2.22;2.08;;;13.60;99.90;;;;;;5092884;28;20067;-62
2023/09/05 05:22:44;;;;;;;2.58;2.38;;;13.60;99.90;;;;;;5092473;28;20047;-62
2023/09/05 05:25:10;;;;;;;2.63;2.42;;;13.70;99.90;;;;;;5092677;28;20036;-63
2023/09/05 05:27:35;;;;;;;1.90;1.80;;;13.70;99.90;;;;;;5092381;28;20387;-63
2023/09/05 05:30:02;;;;;;;3.55;2.50;;;13.80;99.90;;;;;;5091591;28;20040;-63
2023/09/05 05:32:28;;;;;;;2.33;2.13;;;13.80;99.90;;;;;;5092800;28;20046;-63
2023/09/05 05:34:54;;;;;;;2.60;2.40;;;13.80;99.90;;;;;;5111045;28;20454;-63
2023/09/05 05:37:19;;;;;;;2.47;2.28;;;13.80;99.90;;;;;;5096429;28;20488;-63
2023/09/05 05:39:45;;;;;;;2.05;1.92;;;14.20;99.90;;;;;;5096418;28;20434;-63
2023/09/05 05:42:11;;;;;;;2.38;2.17;;;13.90;99.90;;;;;;5111825;28;20406;-63
2023/09/05 05:44:37;;;;;;;2.08;1.95;;;14.00;99.90;;;;;;5096034;28;20040;-62
2023/09/05 05:47:03;;;;;;;3.30;2.28;;;14.10;99.90;;;;;;5096284;28;20448;-63
2023/09/05 05:49:29;;;;;;;2.67;2.47;;;14.10;99.90;;;;;;5095991;28;20044;-65
2023/09/05 05:51:59;;;;;;;2.17;2.08;;;14.10;99.90;;;;;;5095878;28;20077;-66
2023/09/05 05:54:28;;;;;;;2.70;2.50;;;14.20;99.90;;;;;;5094861;28;20044;-68
2023/09/05 05:56:55;;;;;;;2.13;2.03;;;14.20;99.90;;;;;;5095854;28;20117;-66
2023/09/05 05:59:21;;;;;;;2.75;2.55;;;14.30;99.90;;;;;;5095840;28;20039;-66
2023/09/05 06:01:47;;;;;;;2.45;2.25;;;14.30;99.90;;;;;;5094808;28;20040;-68
2023/09/05 06:04:15;;;;;;;2.45;2.25;;;14.40;99.90;;;;;;5111523;28;20054;-66
2023/09/05 06:06:42;;;;;;;3.63;2.00;;;14.40;99.90;;;;;;5095490;28;20060;-66
2023/09/05 06:09:08;;;;;;;2.03;1.92;;;14.40;99.90;;;;;;5094440;28;20040;-67
2023/09/05 06:11:34;;;;;;;2.30;2.10;;;14.50;99.90;;;;;;5094455;28;20409;-67
2023/09/05 06:13:59;;;;;;;2.30;2.10;;;14.60;99.90;;;;;;5095739;28;20035;-66
2023/09/05 06:16:25;;;;;;;2.58;2.38;;;14.60;99.90;;;;;;5095436;28;20487;-66
2023/09/05 06:18:51;;;;;;;2.00;1.90;;;14.70;99.90;;;;;;5095626;28;20033;-67
2023/09/05 06:21:16;;;;;;;2.20;2.10;;;14.80;99.90;;;;;;5094110;28;20067;-67
2023/09/05 06:23:42;;;;;;;1.70;1.60;;;14.90;99.90;;;;;;5095520;28;20032;-66
2023/09/05 06:26:08;;;;;;;2.33;2.13;;;15.00;99.90;;;;;;5095547;28;20024;-66
2023/09/05 06:28:34;;;;;;;2.50;2.30;;;15.10;99.90;;;;;;5093973;28;20113;-66
2023/09/05 06:30:59;;;;;;;2.15;2.05;;;15.10;99.90;;;;;;5095088;28;20036;-66
2023/09/05 06:33:28;;;;;;;2.10;2.00;;;15.30;99.90;;;;;;5095372;28;20601;-66
2023/09/05 06:35:54;;;;;;;1.73;1.63;;;15.40;99.90;;;;;;5095254;28;20471;-66
2023/09/05 06:38:23;;;;;;;1.60;1.50;;;15.50;97.50;;;;;;5095362;28;20039;-67
2023/09/05 06:40:49;;;;;;;2.00;1.90;;;15.60;93.90;;;;;;5095293;28;20051;-66
2023/09/05 06:43:15;;;;;;;1.40;1.30;;;15.70;90.60;;;;;;5093677;28;20044;-66
2023/09/05 06:45:41;;;;;;;1.92;1.83;;;15.80;77.60;;;;;;5094342;28;20039;-68
2023/09/05 06:48:06;;;;;;;1.65;1.55;;;16.00;53.30;;;;;;5094726;28;20442;-68
2023/09/05 06:50:32;;;;;;;1.80;1.70;;;16.20;24.20;;;;;;5094770;28;20044;-66
2023/09/05 06:52:58;;;;;;;1.70;1.60;;;16.30;7.90;;;;;;5095029;28;20456;-66
2023/09/05 06:55:23;;;;;;;1.92;1.60;;;16.50;1.00;;;;;;5093470;28;20036;-66
2023/09/05 06:57:49;;;;;;;1.60;1.50;;;16.60;1.00;;;;;;5094960;28;20040;-66
2023/09/05 07:00:15;;;;;;;2.13;2.00;;;16.70;1.00;;;;;;5094892;28;20040;-65
2023/09/05 07:02:40;;;;;;;1.88;1.77;;;16.80;1.00;;;;;;5110230;28;20044;-65
2023/09/05 07:05:06;;;;;;;2.08;1.85;;;17.80;1.00;;;;;;5094289;28;20060;-65
2023/09/05 07:07:32;;;;;;;1.63;1.52;;;17.10;1.00;;;;;;5094309;28;20040;-65
2023/09/05 07:09:59;;;;;;;1.70;1.55;;;17.00;1.00;;;;;;5094551;28;20036;-63
2023/09/05 07:12:24;;;;;;;1.52;1.40;;;17.30;99.90;;;;;;5094283;28;20110;-65
2023/09/05 07:14:51;;;;;;;1.52;1.42;;;17.40;99.90;;;;;;5110080;28;20077;-64
2023/09/05 07:17:17;;;;;;;1.38;1.25;;;17.60;99.90;;;;;;5094182;28;20032;-64
2023/09/05 07:19:42;;;;;;;1.60;1.50;;;17.70;99.90;;;;;;5094122;28;20051;-64
2023/09/05 07:22:08;;;;;;;1.60;1.50;;;17.80;99.90;;;;;;5094395;28;20044;-64
2023/09/05 07:24:33;;;;;;;1.45;1.35;;;18.00;99.90;;;;;;5094358;28;20043;-64
2023/09/05 07:26:59;;;;;;;1.60;1.50;;;18.00;99.90;;;;;;5109790;28;20411;-64
2023/09/05 07:29:26;;;;;;;1.55;1.23;;;18.20;99.90;;;;;;5092795;28;20098;-64
2023/09/05 07:31:51;;;;;;;1.40;1.30;;;18.30;85.20;;;;;;5093867;28;20047;-64
2023/09/05 07:34:17;;;;;;;1.08;1.08;;;18.40;1.00;;;;;;5076031;28;20036;-64
2023/09/05 07:36:43;;;;;;;1.42;1.33;;;18.50;1.00;;;;;;5109618;28;20089;-64
2023/09/05 07:39:10;;;;;;;1.00;0.90;;;18.70;99.90;;;;;;5094165;28;20039;-64
2023/09/05 07:41:35;;;;;;;1.45;1.35;;;18.80;99.90;;;;;;5094439;28;20044;-64
2023/09/05 07:44:02;;;;;;;1.08;1.08;;;18.90;99.90;;;;;;5109383;28;20047;-64
2023/09/05 07:46:27;;;;;;;1.55;1.45;;;19.10;99.90;;;;;;5093987;28;20040;-63
2023/09/05 07:48:53;;;;;;;1.98;1.45;;;19.10;99.90;;;;;;5075438;28;20052;-65
2023/09/05 07:51:22;;;;;;;1.80;1.70;;;19.20;1.00;;;;;;5093638;28;20047;-64
2023/09/05 07:53:50;;;;;;;1.33;1.23;;;19.30;1.00;;;;;;5093975;28;20158;-64
2023/09/05 07:56:16;;;;;;;1.38;1.27;;;19.40;40.40;;;;;;5093698;28;20403;-64
2023/09/05 07:58:41;;;;;;;1.02;1.02;;;19.50;1.00;;;;;;5109190;28;20052;-65
2023/09/05 08:01:09;;;;;;;1.10;1.10;;;19.50;99.90;;;;;;5109081;28;20467;-64
2023/09/05 08:03:36;;;;;;;1.88;1.33;;;19.60;1.00;;;;;;5093658;28;20403;-64
2023/09/05 08:06:04;;;;;;;0.98;0.98;;;19.70;99.90;;;;;;5093158;28;20147;-64
2023/09/05 08:08:29;;;;;;;1.17;1.08;;;19.80;99.90;;;;;;5093559;28;20094;-64
2023/09/05 08:10:55;;;;;;;1.35;1.10;;;19.80;29.70;;;;;;5092096;28;20454;-65
2023/09/05 08:13:21;;;;;;;1.23;1.13;;;19.90;1.00;;;;;;5093551;28;20372;-65
2023/09/05 08:15:46;;;;;;;1.30;1.20;;;20.00;99.90;;;;;;5109245;28;20042;-65
2023/09/05 08:18:12;;;;;;;1.48;1.13;;;20.20;99.90;;;;;;5093484;28;20042;-64
2023/09/05 08:20:39;;;;;;;1.52;1.40;;;20.20;76.50;;;;;;5093598;28;20036;-65
2023/09/05 08:23:05;;;;;;;1.58;1.15;;;20.30;1.00;;;;;;5093387;28;20404;-65
2023/09/05 08:25:31;;;;;;;1.48;1.33;;;20.30;1.00;;;;;;5092153;28;20047;-65
2023/09/05 08:27:57;;;;;;;0.85;0.85;;;20.20;99.90;;;;;;5093009;28;20575;-65
2023/09/05 08:30:27;;;;;;;1.40;1.30;;;20.50;99.90;;;;;;5093308;28;20074;-65
2023/09/05 08:32:57;;;;;;;;;;;20.50;99.90;;;;;;5093725;28;20117;-65
2023/09/05 08:35:22;;;;;;;1.23;1.13;;;20.60;53.30;;;;;;5093231;28;20040;-65
2023/09/05 08:37:48;;;;;;;0.82;0.82;;;21.10;99.90;;;;;;5075069;28;20121;-65
2023/09/05 08:40:15;;;;;;;1.20;1.10;;;20.80;99.90;;;;;;5093190;28;20084;-67
2023/09/05 08:42:42;;;;;;;1.20;1.10;;;20.90;17.60;;;;;;5092921;28;20036;-66
2023/09/05 08:45:13;;;;;;;1.33;1.23;;;21.00;1.00;;;;;;5091620;28;20407;-66
2023/09/05 08:47:39;;;;;;;0.80;0.80;;;21.20;1.00;;;;;;5093182;28;20039;-65
2023/09/05 08:50:07;;;;;;;1.30;1.08;;;21.20;99.90;;;;;;5108448;28;20040;-66
2023/09/05 08:52:37;;;;;;;0.70;0.70;;;21.40;99.90;;;;;;5091519;28;20449;-65
2023/09/05 08:55:03;;;;;;;0.70;0.70;;;21.40;99.90;;;;;;5093058;28;20032;-65
2023/09/05 08:57:31;;;;;;;0.82;0.82;;;21.60;99.90;;;;;;5093147;28;20391;-65
2023/09/05 08:59:57;;;;;;;1.02;0.90;;;21.60;99.90;;;;;;5092891;28;20031;-66
2023/09/05 09:02:23;;;;;;;1.25;1.00;;;21.80;99.90;;;;;;5091425;28;20052;-66
2023/09/05 09:04:53;;;;;;;1.08;0.80;;;21.80;99.90;;;;;;5108238;28;20446;-65
2023/09/05 09:07:23;;;;;;;1.00;1.00;;;22.00;1.00;;;;;;5092999;28;20048;-66
2023/09/05 09:09:49;;;;;;;1.40;1.30;;;22.00;92.00;;;;;;5095685;28;20089;-66
2023/09/05 09:12:14;;;;;;;1.88;1.30;;;22.00;1.00;;;;;;5096629;28;20032;-65
2023/09/05 09:14:40;;;;;;;0.77;0.77;;;22.10;46.80;;;;;;5096963;28;20043;-65
2023/09/05 09:17:06;;;;;;;1.13;0.95;;;22.10;1.00;;;;;;5096551;28;20051;-65
2023/09/05 09:19:32;;;;;;;0.70;0.70;;;22.20;1.00;;;;;;5095348;28;20048;-65
2023/09/05 09:22:05;;;;;;;1.10;1.00;;;22.20;1.00;;;;;;5096536;28;20032;-66
2023/09/05 09:24:35;;;;;;;0.88;0.88;;;22.30;1.00;;;;;;5096802;28;20044;-64
2023/09/05 09:27:05;;;;;;;0.80;0.80;;;22.40;1.00;;;;;;5096517;28;20036;-64
2023/09/05 09:29:32;;;;;;;1.10;1.00;;;22.50;99.90;;;;;;5096571;28;20036;-64
2023/09/05 09:32:05;;;;;;;0.80;0.80;;;22.50;1.00;;;;;;5096638;28;20387;-64
2023/09/05 09:34:32;;;;;;;0.80;0.80;;;22.60;99.90;;;;;;5096584;28;20052;-64
2023/09/05 09:36:58;;;;;;;1.13;1.02;;;22.80;99.90;;;;;;5096203;28;20035;-65
2023/09/05 09:39:25;;;;;;;1.20;1.15;;;22.70;99.90;;;;;;5096245;28;20127;-64
2023/09/05 09:41:51;;;;;;;0.90;0.80;;;23.00;1.00;;;;;;5095141;28;20510;-64
2023/09/05 09:44:28;;;;;;;1.08;0.90;;;23.50;99.90;;;;;;5096347;28;20048;-64
2023/09/05 09:46:55;;;;;;;1.10;1.00;;;23.00;99.90;;;;;;5096310;28;20035;-64
2023/09/05 09:49:23;;;;;;;0.80;0.80;;;23.10;99.90;;;;;;5095871;28;20036;-64
2023/09/05 09:51:56;;;;;;;0.80;0.80;;;23.20;99.90;;;;;;5096281;28;20036;-64
2023/09/05 09:54:36;;;;;;;0.82;0.82;;;23.30;99.90;;;;;;5096169;28;20032;-64
2023/09/05 09:57:06;;;;;;;0.88;0.88;;;23.20;99.90;;;;;;5096211;28;20032;-65
2023/09/05 09:59:37;;;;;;;0.75;0.75;;;23.40;99.90;;;;;;5096090;28;20044;-64
2023/09/05 10:02:09;;;;;;;0.90;0.90;;;23.60;99.90;;;;;;5094663;28;20047;-65
2023/09/05 10:04:35;;;;;;;0.63;0.63;;;23.60;99.90;;;;;;5095992;28;20066;-64
2023/09/05 10:07:06;;;;;;;0.82;0.80;;;23.70;99.90;;;;;;5095427;28;20067;-64
2023/09/05 10:09:35;;;;;;;1.15;0.70;;;23.80;99.90;;;;;;5095753;28;20044;-65
2023/09/05 10:12:02;;;;;;;0.70;0.70;;;23.90;99.90;;;;;;5097039;28;20040;-65
2023/09/05 10:14:31;;;;;;;0.60;0.60;;;24.30;99.90;;;;;;5096016;28;20063;-66
2023/09/05 10:16:58;;;;;;;1.73;1.10;;;24.20;99.90;;;;;;5096104;28;20036;-65
2023/09/05 10:19:26;;;;;;;0.75;0.70;;;24.30;99.90;;;;;;5094007;28;20039;-68
2023/09/05 10:21:55;;;;;;;1.38;1.00;;;24.40;99.90;;;;;;5094547;28;20111;-68
2023/09/05 10:24:23;;;;;;;0.70;0.70;;;24.60;99.90;;;;;;5094365;28;20048;-66
2023/09/05 10:26:48;;;;;;;0.70;0.70;;;24.60;99.90;;;;;;5095258;28;20036;-66
2023/09/05 10:29:33;;;;;;;1.10;1.00;;;24.70;99.90;;;;;;5095112;28;20040;-66
2023/09/05 10:32:01;;;;;;;1.02;0.93;;;24.80;99.90;;;;;;5095558;28;20032;-66
2023/09/05 10:34:50;;;;;;;0.80;0.80;;;24.90;99.90;;;;;;5093935;28;20043;-67
2023/09/05 10:37:26;;;;;;;1.85;0.80;;;24.90;99.90;;;;;;5095362;28;20391;-67
2023/09/05 10:40:02;;;;;;;1.00;1.00;;;;;;;;;;5093792;28;20047;-67
2023/09/05 10:42:29;;;;;;;0.98;0.98;;;;;;;;;;5093696;28;20048;-67
2023/09/05 10:44:55;;;;;;;0.70;0.70;;;25.10;99.90;;;;;;5093639;28;20036;-66
2023/09/05 10:47:35;;;;;;;0.70;0.70;;;25.20;99.90;;;;;;5095142;28;20043;-67
2023/09/05 10:50:05;;;;;;;1.27;1.08;;;25.20;99.90;;;;;;5095041;28;20052;-68
2023/09/05 10:52:32;;;;;;;0.80;0.80;;;25.10;99.90;;;;;;5095276;28;20494;-67
2023/09/05 10:54:59;;;;;;;0.70;0.63;;;25.20;99.90;;;;;;5094956;28;20429;-68
2023/09/05 10:57:40;;;;;;;0.70;0.70;;;25.20;99.90;;;;;;5094745;28;20032;-68
2023/09/05 11:00:29;;;;;;;1.25;0.90;;;25.20;99.90;;;;;;5094575;28;20044;-67
2023/09/05 11:03:16;;;;;;;1.20;1.10;;;25.20;99.90;;;;;;5076484;28;20047;-68
2023/09/05 11:05:45;;;;;;;0.70;0.60;;;25.30;99.90;;;;;;5094564;28;20051;-67
2023/09/05 11:08:21;;;;;;;0.80;0.80;;;25.30;99.90;;;;;;5094637;28;20484;-67
2023/09/05 11:10:46;;;;;;;0.77;0.77;;;25.40;99.90;;;;;;5094512;28;20031;-68
2023/09/05 11:13:15;;;;;;;0.85;0.85;;;25.40;99.90;;;;;;5094632;28;20040;-67
2023/09/05 11:15:45;;;;;;;0.65;0.65;;;25.40;99.90;;;;;;5094524;28;20105;-68
2023/09/05 11:18:12;;;;;;;0.95;0.90;;;25.40;99.90;;;;;;5094560;28;20067;-67
2023/09/05 11:20:39;;;;;;;0.70;0.70;;;25.50;99.90;;;;;;5094494;28;20513;-67
2023/09/05 11:23:25;;;;;;;1.10;0.95;;;25.40;99.90;;;;;;5094511;28;20084;-68
2023/09/05 11:25:56;;;;;;;1.35;0.70;;;25.50;99.90;;;;;;5094467;28;20050;-67
2023/09/05 11:28:23;;;;;;;0.60;0.60;;;25.60;99.90;;;;;;5094277;28;20040;-67
2023/09/05 11:30:57;;;;;;;0.70;0.70;;;25.50;99.90;;;;;;5094224;28;20032;-67
2023/09/05 11:33:24;;;;;;;1.77;1.10;;;25.70;99.90;;;;;;5094172;28;20044;-67
2023/09/05 11:35:50;;;;;;;0.70;0.70;;;25.70;99.90;;;;;;5093915;28;20396;-67
2023/09/05 11:38:16;;;;;;;1.73;0.98;;;25.80;99.90;;;;;;5094178;28;20040;-67
2023/09/05 11:40:53;;;;;;;0.70;0.70;;;25.80;99.90;;;;;;5092766;28;20067;-65
2023/09/05 11:43:18;;;;;;;1.65;0.88;;;26.10;99.90;;;;;;5094140;28;20083;-64
2023/09/05 11:45:46;;;;;;;0.88;0.80;;;25.90;99.90;;;;;;5093740;28;20467;-64
2023/09/05 11:48:17;;;;;;;0.60;0.60;;;26.00;99.90;;;;;;5092327;28;20044;-66
2023/09/05 11:50:44;;;;;;;0.70;0.70;;;26.00;99.90;;;;;;5092584;28;20044;-68
2023/09/05 11:53:14;;;;;;;0.80;0.80;;;26.10;99.90;;;;;;5092471;28;20036;-68
2023/09/05 11:55:42;;;;;;;1.02;0.80;;;26.30;99.90;;;;;;5093950;28;20044;-67
2023/09/05 11:58:07;;;;;;;0.70;0.70;;;26.20;99.90;;;;;;5092234;28;20118;-67
2023/09/05 12:00:50;;;;;;;0.70;0.70;;;26.20;99.90;;;;;;5093757;28;20495;-67
2023/09/05 12:03:17;;;;;;;0.73;0.63;;;26.30;99.90;;;;;;5093557;28;20055;-67
2023/09/05 12:05:48;;;;;;;0.70;0.70;;;26.30;99.90;;;;;;5093450;28;20139;-67
2023/09/05 12:08:18;;;;;;;1.02;0.77;;;26.40;99.90;;;;;;5093543;28;20571;-68
2023/09/05 12:10:51;;;;;;;0.77;0.70;;;26.40;99.90;;;;;;5093550;28;20445;-68
2023/09/05 12:13:17;;;;;;;0.75;0.60;;;26.50;99.90;;;;;;5093547;28;20066;-67
2023/09/05 12:15:47;;;;;;;0.82;0.82;;;26.50;99.90;;;;;;5093273;28;20038;-68
2023/09/05 12:18:25;;;;;;;1.38;0.75;;;26.60;99.90;;;;;;5093463;28;20040;-68
2023/09/05 12:21:00;;;;;;;0.60;0.60;;;26.40;99.90;;;;;;5093507;28;20047;-68
2023/09/05 12:23:30;;;;;;;0.60;0.60;;;26.60;99.90;;;;;;5091946;28;20083;-68
2023/09/05 12:25:56;;;;;;;1.10;0.80;;;26.70;99.90;;;;;;5093438;28;20450;-68
2023/09/05 12:28:24;;;;;;;1.15;1.00;;;26.80;99.90;;;;;;5093232;28;20044;-69
2023/09/05 12:30:53;;;;;;;0.63;0.60;;;26.80;98.90;;;;;;5093069;28;20048;-68
2023/09/05 12:33:19;;;;;;;0.70;0.70;;;26.80;99.90;;;;;;5093001;28;20093;-68
2023/09/05 12:35:46;;;;;;;0.70;0.70;;;26.90;99.90;;;;;;5093287;28;20111;-68
2023/09/05 12:38:11;;;;;;;0.50;0.50;;;26.90;99.90;;;;;;5092923;28;20093;-69
2023/09/05 12:40:38;;;;;;;0.70;0.70;;;27.00;99.90;;;;;;5093172;28;20039;-68
2023/09/05 12:43:04;;;;;;;0.70;0.70;;;27.00;99.90;;;;;;5090893;28;20492;-68
2023/09/05 12:45:31;;;;;;;0.70;0.60;;;27.00;99.90;;;;;;5091613;28;20071;-69
2023/09/05 12:47:57;;;;;;;0.57;0.57;;;27.00;99.90;;;;;;5093073;28;20113;-68
2023/09/05 12:50:32;;;;;;;0.50;0.50;;;27.00;99.30;;;;;;5092871;28;20040;-69